createdAt,value
2023-01-13T00:01:25.387Z,11.57
2023-01-13T00:03:53.160Z,10.90
2023-01-13T00:06:26.284Z,6.75
2023-01-13T00:08:53.807Z,7.90
2023-01-13T00:11:21.706Z,8.48
2023-01-13T00:13:50.974Z,9.93
2023-01-13T00:16:19.434Z,11.57
2023-01-13T00:18:47.802Z,10.90
2023-01-13T00:21:21.101Z,10.40
2023-01-13T00:23:48.563Z,10.07
2023-01-13T00:26:22.162Z,10.13
2023-01-13T00:28:49.284Z,9.40
2023-01-13T00:31:21.134Z,9.40
2023-01-13T00:33:51.297Z,9.10
2023-01-13T00:36:20.447Z,7.68
2023-01-13T00:38:48.027Z,6.55
2023-01-13T00:41:17.785Z,6.82
2023-01-13T00:43:45.259Z,7.70
2023-01-13T00:46:15.149Z,6.85
2023-01-13T00:48:42.749Z,5.95
2023-01-13T00:51:19.519Z,5.03
2023-01-13T00:53:49.441Z,6.63
2023-01-13T00:56:34.077Z,5.05
2023-01-13T00:59:07.732Z,4.43
2023-01-13T01:01:35.241Z,4.85
2023-01-13T01:04:02.383Z,4.45
2023-01-13T01:06:30.002Z,4.65
2023-01-13T01:09:01.836Z,4.68
2023-01-13T01:11:31.239Z,4.82
2023-01-13T01:14:01.375Z,4.43
2023-01-13T01:16:30.537Z,4.10
2023-01-13T01:19:00.845Z,4.20
2023-01-13T01:21:29.254Z,4.78
2023-01-13T01:24:04.460Z,4.32
2023-01-13T01:26:32.171Z,3.83
2023-01-13T01:29:00.022Z,4.65
2023-01-13T01:31:34.039Z,4.15
2023-01-13T01:34:01.622Z,4.35
2023-01-13T01:36:34.995Z,4.53
2023-01-13T01:39:05.534Z,4.00
2023-01-13T01:41:35.648Z,3.72
2023-01-13T01:44:42.381Z,3.85
2023-01-13T01:47:13.758Z,4.05
2023-01-13T01:49:41.530Z,4.10
2023-01-13T01:52:24.341Z,4.60
2023-01-13T01:55:00.349Z,4.10
2023-01-13T01:57:53.665Z,5.05
2023-01-13T02:00:24.694Z,5.00
2023-01-13T02:02:53.125Z,5.18
2023-01-13T02:05:20.897Z,4.70
2023-01-13T02:07:51.739Z,4.80
2023-01-13T02:10:21.869Z,5.05
2023-01-13T02:12:51.171Z,4.80
2023-01-13T02:15:20.956Z,4.82
2023-01-13T02:17:50.937Z,4.70
2023-01-13T02:20:18.013Z,5.07
2023-01-13T02:23:36.241Z,5.00
2023-01-13T02:29:40.384Z,4.75
2023-01-13T02:32:35.279Z,4.45
2023-01-13T02:35:10.591Z,4.15
2023-01-13T02:37:44.177Z,4.60
2023-01-13T02:40:27.913Z,4.78
2023-01-13T02:43:32.048Z,4.38
2023-01-13T02:46:15.310Z,4.68
2023-01-13T02:48:46.118Z,4.50
2023-01-13T02:51:20.763Z,4.93
2023-01-13T02:54:06.166Z,4.90
2023-01-13T02:56:38.332Z,4.38
2023-01-13T02:59:06.808Z,5.13
2023-01-13T03:01:34.227Z,5.05
2023-01-13T03:04:46.440Z,5.65
2023-01-13T03:07:40.643Z,5.47
2023-01-13T03:10:18.345Z,5.60
2023-01-13T03:12:49.219Z,5.28
2023-01-13T03:15:22.952Z,6.40
2023-01-13T03:18:19.431Z,5.80
2023-01-13T03:21:06.660Z,4.75
2023-01-13T03:23:57.175Z,6.25
2023-01-13T03:26:31.131Z,6.07
2023-01-13T03:29:17.572Z,5.95
2023-01-13T03:32:06.591Z,5.70
2023-01-13T03:34:40.887Z,6.03
2023-01-13T03:37:10.776Z,5.88
2023-01-13T03:39:41.826Z,5.60
2023-01-13T03:42:13.468Z,5.88
2023-01-13T03:44:47.124Z,6.18
2023-01-13T03:47:18.259Z,5.85
2023-01-13T03:49:48.562Z,6.18
2023-01-13T03:52:22.668Z,5.63
2023-01-13T03:54:56.824Z,5.68
2023-01-13T03:57:31.457Z,5.80
2023-01-13T04:00:01.409Z,5.80
2023-01-13T04:02:44.066Z,5.53
2023-01-13T04:05:12.413Z,5.82
2023-01-13T04:07:48.493Z,6.32
2023-01-13T04:10:21.577Z,6.53
2023-01-13T04:13:03.150Z,6.03
2023-01-13T04:15:42.531Z,6.85
2023-01-13T04:18:21.431Z,6.90
2023-01-13T04:20:50.890Z,7.07
2023-01-13T04:23:19.207Z,6.30
2023-01-13T04:25:47.596Z,6.50
2023-01-13T04:28:15.477Z,6.38
2023-01-13T04:30:43.264Z,6.78
2023-01-13T04:33:10.796Z,6.53
2023-01-13T04:35:38.719Z,7.15
2023-01-13T04:38:08.963Z,6.43
2023-01-13T04:40:36.546Z,6.85
2023-01-13T04:43:03.901Z,6.15
2023-01-13T04:45:31.625Z,6.90
2023-01-13T04:48:01.067Z,6.45
2023-01-13T04:50:28.696Z,6.90
2023-01-13T04:52:56.063Z,6.75
2023-01-13T04:55:24.827Z,6.35
2023-01-13T04:57:52.447Z,6.05
2023-01-13T05:00:21.876Z,6.40
2023-01-13T05:02:52.176Z,6.88
2023-01-13T05:05:19.695Z,6.63
2023-01-13T05:07:46.791Z,5.93
2023-01-13T05:10:14.223Z,7.10
2023-01-13T05:13:00.324Z,6.13
2023-01-13T05:15:50.980Z,5.72
2023-01-13T05:18:19.314Z,5.93
2023-01-13T05:20:46.965Z,5.68
2023-01-13T05:23:32.493Z,5.28
2023-01-13T05:25:59.883Z,6.50
2023-01-13T05:28:31.427Z,6.60
2023-01-13T05:31:01.087Z,7.30
2023-01-13T05:33:28.295Z,7.40
2023-01-13T05:36:02.885Z,6.63
2023-01-13T05:38:29.952Z,6.88
2023-01-13T05:41:18.189Z,6.80
2023-01-13T05:43:45.268Z,7.05
2023-01-13T05:46:13.406Z,6.55
2023-01-13T05:48:42.276Z,6.22
2023-01-13T05:51:14.258Z,6.78
2023-01-13T05:53:41.326Z,6.10
2023-01-13T05:56:09.770Z,7.03
2023-01-13T05:58:37.200Z,6.75
2023-01-13T06:01:07.921Z,6.00
2023-01-13T06:03:35.302Z,6.43
2023-01-13T06:06:04.312Z,6.40
2023-01-13T06:08:32.939Z,6.35
2023-01-13T06:11:00.674Z,6.97
2023-01-13T06:13:27.875Z,7.70
2023-01-13T06:15:59.328Z,7.60
2023-01-13T06:18:27.289Z,7.25
2023-01-13T06:20:57.463Z,6.78
2023-01-13T06:23:24.667Z,6.88
2023-01-13T06:26:12.387Z,7.03
2023-01-13T06:28:42.547Z,7.43
2023-01-13T06:31:10.893Z,7.30
2023-01-13T06:33:43.762Z,7.63
2023-01-13T06:36:16.549Z,7.43
2023-01-13T06:38:52.128Z,7.43
2023-01-13T06:41:43.731Z,7.10
2023-01-13T06:44:10.777Z,6.80
2023-01-13T06:46:38.366Z,7.72
2023-01-13T06:49:05.760Z,7.07
2023-01-13T06:51:33.035Z,6.57
2023-01-13T06:54:03.471Z,6.78
2023-01-13T06:56:31.009Z,6.60
2023-01-13T06:58:58.117Z,7.40
2023-01-13T07:01:25.741Z,6.50
2023-01-13T07:03:53.021Z,6.93
2023-01-13T07:06:20.383Z,7.53
2023-01-13T07:08:47.732Z,7.30
2023-01-13T07:11:15.051Z,8.07
2023-01-13T07:14:00.590Z,7.20
2023-01-13T07:16:30.944Z,6.95
2023-01-13T07:19:00.274Z,6.35
2023-01-13T07:21:29.784Z,7.28
2023-01-13T07:23:56.835Z,8.02
2023-01-13T07:26:24.133Z,7.63
2023-01-13T07:28:51.345Z,7.57
2023-01-13T07:31:23.402Z,6.63
2023-01-13T07:33:50.463Z,7.50
2023-01-13T07:36:17.862Z,8.30
2023-01-13T07:38:44.889Z,8.15
2023-01-13T07:41:33.015Z,8.50
2023-01-13T07:44:00.661Z,8.95
2023-01-13T07:46:27.986Z,7.85
2023-01-13T07:48:55.061Z,8.98
2023-01-13T07:51:22.781Z,8.50
2023-01-13T07:53:50.102Z,8.90
2023-01-13T07:56:18.082Z,9.55
2023-01-13T07:58:50.361Z,9.48
2023-01-13T08:01:18.653Z,9.18
2023-01-13T08:03:46.213Z,9.15
2023-01-13T08:06:14.473Z,8.20
2023-01-13T08:08:41.585Z,8.80
2023-01-13T08:11:09.203Z,8.40
2023-01-13T08:13:37.089Z,9.27
2023-01-13T08:16:07.681Z,9.75
2023-01-13T08:18:35.961Z,10.38
2023-01-13T08:21:06.608Z,10.13
2023-01-13T08:23:33.932Z,10.65
2023-01-13T08:26:03.751Z,10.10
2023-01-13T08:28:31.353Z,9.05
2023-01-13T08:31:04.785Z,9.25
2023-01-13T08:33:32.122Z,9.32
2023-01-13T08:36:02.340Z,9.15
2023-01-13T08:38:29.493Z,7.88
2023-01-13T08:40:56.955Z,8.02
2023-01-13T08:43:24.109Z,7.95
2023-01-13T08:46:04.551Z,7.88
2023-01-13T08:48:32.258Z,7.57
2023-01-13T08:51:07.823Z,7.80
2023-01-13T08:53:34.948Z,4.82
2023-01-13T08:56:02.474Z,7.63
2023-01-13T08:58:29.637Z,7.30
2023-01-13T09:01:05.377Z,6.38
2023-01-13T09:03:34.772Z,6.82
2023-01-13T09:06:02.536Z,6.90
2023-01-13T09:08:29.603Z,7.13
2023-01-13T09:10:57.970Z,7.28
2023-01-13T09:13:25.506Z,6.97
2023-01-13T09:15:56.488Z,6.95
2023-01-13T09:18:25.953Z,6.82
2023-01-13T09:20:53.294Z,7.03
2023-01-13T09:23:20.345Z,7.68
2023-01-13T09:25:52.526Z,7.15
2023-01-13T09:28:19.570Z,7.00
2023-01-13T09:30:46.999Z,7.03
2023-01-13T09:33:32.659Z,7.65
2023-01-13T09:36:01.241Z,7.10
2023-01-13T09:38:28.447Z,7.82
2023-01-13T09:40:56.049Z,7.80
2023-01-13T09:43:48.427Z,7.85
2023-01-13T09:46:42.920Z,7.43
2023-01-13T09:49:44.855Z,7.20
2023-01-13T09:52:20.551Z,7.55
2023-01-13T09:55:05.283Z,7.60
2023-01-13T09:57:36.770Z,7.22
2023-01-13T10:00:16.713Z,8.15
2023-01-13T10:03:18.284Z,8.20
2023-01-13T10:05:56.640Z,8.27
2023-01-13T10:08:33.030Z,8.05
2023-01-13T10:11:22.533Z,7.20
2023-01-13T10:13:58.410Z,7.80
2023-01-13T10:16:44.472Z,8.13
2023-01-13T10:19:20.958Z,7.57
2023-01-13T10:22:09.617Z,8.38
2023-01-13T10:25:05.617Z,7.80
2023-01-13T10:27:35.819Z,7.53
2023-01-13T10:30:21.397Z,7.93
2023-01-13T10:33:09.560Z,8.02
2023-01-13T10:35:53.801Z,8.35
2023-01-13T10:38:23.865Z,8.60
2023-01-13T10:40:56.828Z,7.93
2023-01-13T10:43:24.702Z,7.10
2023-01-13T10:46:06.634Z,7.70
2023-01-13T10:48:39.395Z,7.05
2023-01-13T10:51:38.971Z,7.50
2023-01-13T10:54:12.885Z,8.43
2023-01-13T10:56:42.907Z,7.63
2023-01-13T10:59:16.099Z,7.68
2023-01-13T11:02:24.934Z,8.40
2023-01-13T11:04:53.297Z,8.15
2023-01-13T11:07:28.339Z,8.20
2023-01-13T11:10:22.579Z,6.15
2023-01-13T11:13:10.443Z,7.25
2023-01-13T11:15:40.175Z,7.80
2023-01-13T11:18:23.799Z,8.75
2023-01-13T11:20:52.061Z,7.63
2023-01-13T11:23:30.430Z,7.35
2023-01-13T11:26:14.428Z,7.80
2023-01-13T11:29:09.589Z,8.65
2023-01-13T11:31:44.139Z,9.18
2023-01-13T11:34:24.399Z,8.80
2023-01-13T11:36:54.474Z,8.55
2023-01-13T11:39:27.755Z,11.75
2023-01-13T11:42:21.641Z,10.10
2023-01-13T11:45:16.954Z,9.20
2023-01-13T11:47:47.447Z,8.77
2023-01-13T11:50:48.267Z,8.55
2023-01-13T11:53:21.315Z,8.35
2023-01-13T11:55:53.888Z,11.90
2023-01-13T11:58:51.381Z,11.13
2023-01-13T12:01:48.233Z,9.68
2023-01-13T12:04:27.292Z,8.02
2023-01-13T12:07:27.580Z,7.53
2023-01-13T12:10:11.583Z,8.35
2023-01-13T12:13:11.475Z,8.55
2023-01-13T12:16:01.247Z,8.80
2023-01-13T12:18:34.817Z,7.90
2023-01-13T12:21:12.508Z,8.90
2023-01-13T12:23:45.444Z,8.13
2023-01-13T12:26:19.045Z,8.63
2023-01-13T12:28:53.615Z,9.43
2023-01-13T12:31:24.446Z,8.82
2023-01-13T12:33:54.788Z,7.88
2023-01-13T12:36:52.696Z,8.23
2023-01-13T12:39:59.440Z,10.88
2023-01-13T12:42:59.950Z,9.95
2023-01-13T12:45:31.782Z,8.23
2023-01-13T12:48:00.352Z,9.10
2023-01-13T12:50:28.178Z,8.35
2023-01-13T12:53:32.089Z,8.60
2023-01-13T12:56:37.262Z,7.93
2023-01-13T12:59:16.692Z,8.02
2023-01-13T13:01:46.243Z,7.35
2023-01-13T13:04:17.660Z,7.38
2023-01-13T13:07:09.561Z,8.00
2023-01-13T13:09:53.219Z,9.43
2023-01-13T13:13:00.780Z,8.00
2023-01-13T13:15:35.728Z,7.93
2023-01-13T13:18:08.723Z,7.30
2023-01-13T13:20:54.634Z,9.20
2023-01-13T13:26:22.535Z,10.52
2023-01-13T13:29:21.660Z,7.93
2023-01-13T13:32:00.868Z,7.97
2023-01-13T13:34:40.365Z,7.82
2023-01-13T13:37:27.264Z,8.38
2023-01-13T13:40:14.095Z,8.05
2023-01-13T13:43:03.171Z,8.02
2023-01-13T13:45:49.120Z,8.82
2023-01-13T13:48:31.052Z,8.82
2023-01-13T13:51:02.735Z,8.90
2023-01-13T13:53:42.437Z,8.88
2023-01-13T13:56:20.873Z,9.07
2023-01-13T13:58:49.469Z,8.70
2023-01-13T14:01:28.096Z,9.18
2023-01-13T14:04:26.017Z,9.23
2023-01-13T14:06:58.792Z,8.65
2023-01-13T14:09:28.815Z,9.80
2023-01-13T14:12:00.606Z,9.07
2023-01-13T14:14:28.184Z,9.30
2023-01-13T14:16:56.341Z,10.40
2023-01-13T14:19:35.909Z,9.07
2023-01-13T14:22:05.907Z,9.50
2023-01-13T14:24:33.188Z,9.60
2023-01-13T14:27:13.512Z,8.70
2023-01-13T14:29:41.051Z,8.60
2023-01-13T14:32:09.240Z,8.38
2023-01-13T14:34:39.758Z,7.45
2023-01-13T14:37:34.024Z,7.72
2023-01-13T14:40:01.070Z,7.47
2023-01-13T14:42:31.818Z,8.88
2023-01-13T14:44:58.964Z,8.10
2023-01-13T14:47:33.777Z,8.57
2023-01-13T14:50:04.580Z,8.98
2023-01-13T14:52:35.979Z,9.20
2023-01-13T14:55:11.156Z,8.88
2023-01-13T14:57:41.443Z,9.00
2023-01-13T15:00:14.553Z,8.27
2023-01-13T15:02:57.381Z,8.18
2023-01-13T15:05:27.915Z,7.88
2023-01-13T15:07:56.406Z,8.30
2023-01-13T15:10:32.796Z,8.95
2023-01-13T15:13:06.007Z,8.20
2023-01-13T15:15:36.712Z,7.80
2023-01-13T15:18:15.491Z,7.63
2023-01-13T15:20:45.379Z,8.18
2023-01-13T15:23:12.918Z,8.15
2023-01-13T15:25:42.218Z,7.80
2023-01-13T15:28:20.990Z,7.32
2023-01-13T15:30:50.302Z,7.93
2023-01-13T15:33:19.205Z,7.68
2023-01-13T15:35:51.084Z,8.55
2023-01-13T15:38:21.173Z,8.50
2023-01-13T15:40:50.201Z,8.48
2023-01-13T15:43:41.185Z,8.15
2023-01-13T15:46:39.030Z,8.48
2023-01-13T15:49:17.218Z,8.30
2023-01-13T15:51:44.821Z,9.07
2023-01-13T15:54:12.778Z,8.30
2023-01-13T15:56:42.177Z,8.00
2023-01-13T15:59:19.843Z,8.85
2023-01-13T16:01:46.988Z,8.60
2023-01-13T16:04:16.451Z,8.68
2023-01-13T16:06:43.500Z,10.10
2023-01-13T16:09:15.002Z,8.57
2023-01-13T16:11:42.737Z,10.48
2023-01-13T16:14:10.129Z,9.27
2023-01-13T16:16:37.718Z,10.13
2023-01-13T16:19:05.245Z,10.48
2023-01-13T16:21:32.512Z,10.65
2023-01-13T16:23:59.825Z,10.73
2023-01-13T16:26:32.768Z,11.38
2023-01-13T16:29:00.156Z,11.10
2023-01-13T16:31:32.028Z,12.85
2023-01-13T16:34:01.404Z,12.48
2023-01-13T16:36:31.281Z,10.85
2023-01-13T16:39:00.880Z,11.60
2023-01-13T16:41:28.019Z,11.63
2023-01-13T16:43:55.381Z,11.13
2023-01-13T16:46:27.163Z,12.50
2023-01-13T16:48:57.899Z,13.07
2023-01-13T16:51:25.132Z,12.38
2023-01-13T16:53:53.038Z,12.82
2023-01-13T16:56:28.749Z,13.50
2023-01-13T16:59:03.832Z,12.15
2023-01-13T17:01:33.510Z,12.83
2023-01-13T17:04:01.182Z,12.50
2023-01-13T17:06:34.524Z,11.65
2023-01-13T17:09:08.821Z,12.80
2023-01-13T17:11:36.144Z,12.00
2023-01-13T17:14:18.919Z,12.82
2023-01-13T17:16:47.702Z,13.00
2023-01-13T17:19:15.323Z,15.00
2023-01-13T17:21:42.746Z,14.73
2023-01-13T17:24:12.522Z,13.45
2023-01-13T17:26:44.232Z,14.18
2023-01-13T17:29:19.707Z,16.92
2023-01-13T17:31:49.517Z,16.75
2023-01-13T17:34:16.999Z,13.73
2023-01-13T17:36:44.384Z,13.40
2023-01-13T17:39:20.698Z,13.55
2023-01-13T17:41:48.345Z,13.63
2023-01-13T17:44:18.140Z,13.23
2023-01-13T17:46:45.370Z,12.95
2023-01-13T17:49:18.465Z,12.43
2023-01-13T17:51:51.445Z,12.30
2023-01-13T17:54:19.596Z,13.40
2023-01-13T17:56:47.211Z,13.50
2023-01-13T17:59:17.976Z,14.07
2023-01-13T18:01:46.409Z,13.55
2023-01-13T18:04:23.223Z,13.25
2023-01-13T18:06:51.795Z,12.93
2023-01-13T18:09:19.727Z,13.85
2023-01-13T18:11:47.393Z,16.15
2023-01-13T18:14:15.892Z,14.73
2023-01-13T18:16:43.678Z,14.85
2023-01-13T18:19:32.136Z,14.43
2023-01-13T18:22:18.224Z,14.48
2023-01-13T18:25:05.958Z,14.55
2023-01-13T18:27:37.593Z,13.73
2023-01-13T18:30:08.853Z,13.32
2023-01-13T18:32:38.865Z,12.82
2023-01-13T18:35:10.494Z,14.48
2023-01-13T18:37:40.502Z,12.95
2023-01-13T18:40:10.792Z,12.77
2023-01-13T18:42:59.436Z,14.18
2023-01-13T18:45:29.869Z,15.43
2023-01-13T18:47:59.657Z,15.15
2023-01-13T18:50:28.477Z,14.95
2023-01-13T18:52:57.870Z,14.52
2023-01-13T18:55:25.610Z,13.38
2023-01-13T18:57:54.453Z,13.90
2023-01-13T19:00:23.500Z,14.68
2023-01-13T19:05:38.413Z,15.05
2023-01-13T19:08:05.889Z,14.80
2023-01-13T19:10:33.936Z,16.05
2023-01-13T19:13:03.395Z,15.70
2023-01-13T19:15:30.993Z,14.88
2023-01-13T19:17:58.721Z,15.63
2023-01-13T19:20:26.595Z,15.80
2023-01-13T19:22:55.012Z,15.50
2023-01-13T19:25:23.456Z,16.90
2023-01-13T19:27:50.664Z,16.65
2023-01-13T19:30:18.439Z,16.85
2023-01-13T19:32:48.569Z,16.33
2023-01-13T19:35:18.186Z,17.65
2023-01-13T19:37:46.149Z,18.10
2023-01-13T19:40:14.131Z,17.75
2023-01-13T19:43:02.744Z,18.85
2023-01-13T19:45:32.262Z,16.48
2023-01-13T19:48:02.554Z,17.83
2023-01-13T19:50:30.098Z,15.43
2023-01-13T19:52:58.265Z,14.43
2023-01-13T19:55:26.113Z,13.68
2023-01-13T19:57:53.433Z,10.40
2023-01-13T20:00:24.054Z,5.30
2023-01-13T20:02:53.335Z,1.55
2023-01-13T20:05:26.213Z,1.38
2023-01-13T20:07:54.812Z,1.40
2023-01-13T20:10:25.118Z,1.05
2023-01-13T20:12:52.796Z,0.88
2023-01-13T20:15:20.665Z,0.80
2023-01-13T20:17:48.434Z,1.25
2023-01-13T20:20:18.656Z,0.98
2023-01-13T20:22:50.208Z,1.10
2023-01-13T20:25:19.878Z,0.82
2023-01-13T20:27:48.781Z,0.80
2023-01-13T20:30:16.739Z,0.80
2023-01-13T20:32:46.307Z,0.77
2023-01-13T20:35:15.817Z,0.80
2023-01-13T20:37:44.319Z,1.35
2023-01-13T20:40:15.761Z,0.68
2023-01-13T20:42:48.132Z,0.82
2023-01-13T20:45:23.937Z,0.98
2023-01-13T20:50:20.974Z,0.80
2023-01-13T20:52:48.561Z,1.00
2023-01-13T20:55:16.706Z,1.15
2023-01-13T20:57:43.897Z,0.63
2023-01-13T21:00:11.727Z,0.98
2023-01-13T21:02:41.142Z,1.00
2023-01-13T21:05:09.954Z,0.65
2023-01-13T21:07:37.506Z,1.02
2023-01-13T21:10:05.920Z,0.80
2023-01-13T21:12:51.917Z,0.85
2023-01-13T21:15:22.959Z,0.60
2023-01-13T21:18:11.568Z,0.80
2023-01-13T21:20:39.649Z,0.80
2023-01-13T21:23:08.434Z,1.20
2023-01-13T21:25:37.375Z,0.65
2023-01-13T21:28:10.419Z,1.00
2023-01-13T21:30:39.264Z,0.70
2023-01-13T21:33:06.673Z,0.93
2023-01-13T21:35:37.346Z,0.90
2023-01-13T21:38:04.883Z,0.90
2023-01-13T21:40:32.131Z,0.75
2023-01-13T21:43:18.627Z,1.20
2023-01-13T21:46:05.568Z,0.70
2023-01-13T21:48:35.587Z,0.90
2023-01-13T21:51:02.919Z,0.88
2023-01-13T21:53:30.794Z,0.70
2023-01-13T21:55:57.952Z,1.00
2023-01-13T21:58:27.807Z,0.77
2023-01-13T22:00:55.265Z,1.05
2023-01-13T22:03:22.991Z,0.47
2023-01-13T22:05:55.797Z,0.90
2023-01-13T22:08:23.460Z,0.75
2023-01-13T22:11:00.540Z,0.93
2023-01-13T22:13:48.185Z,1.13
2023-01-13T22:16:15.670Z,0.93
2023-01-13T22:18:43.404Z,0.85
2023-01-13T22:21:11.209Z,1.00
2023-01-13T22:23:38.978Z,0.82
2023-01-13T22:26:07.787Z,0.63
2023-01-13T22:28:40.957Z,1.10
2023-01-13T22:31:23.669Z,0.90
2023-01-13T22:33:55.817Z,0.93
2023-01-13T22:36:26.840Z,1.50
2023-01-13T22:38:56.401Z,1.40
2023-01-13T22:41:23.599Z,1.13
2023-01-13T22:43:51.444Z,1.05
2023-01-13T22:46:18.491Z,1.25
2023-01-13T22:48:48.384Z,0.80
2023-01-13T22:51:16.970Z,1.02
2023-01-13T22:53:45.058Z,0.95
2023-01-13T22:56:18.620Z,1.05
2023-01-13T22:58:46.843Z,0.93
2023-01-13T23:01:17.417Z,1.00
2023-01-13T23:03:48.036Z,0.80
2023-01-13T23:06:18.252Z,1.33
2023-01-13T23:08:46.990Z,1.08
2023-01-13T23:11:16.323Z,0.93
2023-01-13T23:13:44.208Z,0.95
2023-01-13T23:16:17.063Z,0.88
2023-01-13T23:18:48.555Z,0.93
2023-01-13T23:21:26.204Z,0.82
2023-01-13T23:23:54.279Z,0.90
2023-01-13T23:26:22.155Z,0.90
2023-01-13T23:28:49.811Z,1.20
2023-01-13T23:31:19.663Z,0.98
2023-01-13T23:33:47.300Z,0.70
2023-01-13T23:36:22.038Z,1.40
2023-01-13T23:38:49.924Z,1.30
2023-01-13T23:41:24.931Z,0.90
2023-01-13T23:43:54.754Z,1.20
2023-01-13T23:46:22.415Z,1.08
2023-01-13T23:48:50.709Z,1.00
2023-01-13T23:51:18.808Z,1.60
2023-01-13T23:53:50.598Z,1.27
2023-01-13T23:56:27.310Z,1.00
2023-01-13T23:58:55.385Z,0.88
